Terminal Aerodrome Forecast
Issued by NWS Twin Cities, MN

Home | Current Version | Previous Version | Text Only | Print | Product List | Glossary Off
Versions: 1 2 3 4 5 6 7 8 9 10 11 12 13 14 15 16 17 18 19 20 21 22 23 24 25 26 27

000
FTUS43 KMPX 292104 AAA
TAFMSP
TAF AMD
KMSP 292104Z 2921/3024 21010G17KT P6SM SCT035 BKN250
     FM300100 19007KT P6SM SCT040 BKN250
      TEMPO 3002/3005 5SM -TSRA BKN040CB OVC090
     FM300900 33005KT P6SM VCSH BKN050 OVC100
     FM301500 01006KT P6SM SCT050 SCT100 BKN250=

USA.gov is the U.S. government's official web portal to all federal, state and local government web resources and services.